Time;durP1;ratioP1;P1;durP2;ratioP2;P2;SDS_P1;SDS_P2;PMS_P1;PMS_P2;Temp;Humidity;BMP_temperature;BMP_pressure;BME280_temperature;BME280_humidity;BME280_pressure;Samples;Min_cycle;Max_cycle;Signal;HPM_P1;HPM_P2
2022/05/27 00:00:19;;;;;;;3.43;2.10;;;17.90;99.90;;;;;;4998819;28;20551;-49
2022/05/27 00:02:50;;;;;;;2.40;1.93;;;17.90;99.90;;;;;;5001330;28;20435;-45
2022/05/27 00:05:19;;;;;;;3.37;3.10;;;18.00;99.90;;;;;;5000773;28;20793;-49
2022/05/27 00:07:46;;;;;;;4.17;2.63;;;17.90;99.90;;;;;;4997130;28;20451;-45
2022/05/27 00:10:14;;;;;;;1.87;1.77;;;17.80;99.90;;;;;;4995677;28;20419;-41
2022/05/27 00:12:42;;;;;;;2.40;2.20;;;17.70;99.90;;;;;;4995298;28;20701;-44
2022/05/27 00:15:10;;;;;;;1.83;1.73;;;17.70;99.90;;;;;;4995445;28;20449;-48
2022/05/27 00:17:38;;;;;;;2.73;1.80;;;17.70;99.90;;;;;;4995309;28;20410;-43
2022/05/27 00:20:06;;;;;;;2.43;2.23;;;17.70;99.90;;;;;;4994831;28;20884;-40
2022/05/27 00:22:33;;;;;;;2.30;2.10;;;17.70;99.90;;;;;;4993902;28;20452;-48
2022/05/27 00:25:02;;;;;;;2.37;2.17;;;17.70;99.90;;;;;;4983519;28;20439;-45
2022/05/27 00:27:29;;;;;;;1.70;1.40;;;17.70;99.90;;;;;;4988210;28;20446;-45
2022/05/27 00:29:57;;;;;;;2.90;1.50;;;17.70;99.90;;;;;;4994915;28;20795;-42
2022/05/27 00:32:29;;;;;;;3.53;1.67;;;17.80;99.90;;;;;;4995380;28;20775;-44
2022/05/27 00:34:56;;;;;;;2.97;1.30;;;17.70;99.90;;;;;;4997785;28;20549;-47
2022/05/27 00:37:25;;;;;;;4.40;1.40;;;17.50;99.90;;;;;;4999545;28;20708;-45
2022/05/27 00:39:52;;;;;;;2.40;1.83;;;17.50;99.90;;;;;;4999183;28;20493;-46
2022/05/27 00:42:19;;;;;;;3.17;2.27;;;17.60;99.90;;;;;;4999060;28;20473;-45
2022/05/27 00:44:47;;;;;;;1.23;1.13;;;17.70;99.90;;;;;;4999268;28;20416;-46
2022/05/27 00:47:21;;;;;;;1.90;1.70;;;17.70;99.90;;;;;;4998177;28;20531;-46
2022/05/27 00:49:59;;;;;;;2.30;2.00;;;17.80;99.90;;;;;;4997861;28;20533;-48
2022/05/27 00:52:30;;;;;;;1.30;1.13;;;17.70;99.90;;;;;;4998848;28;20462;-44
2022/05/27 00:55:00;;;;;;;1.73;1.43;;;17.50;99.90;;;;;;4999411;28;20465;-46
2022/05/27 00:57:35;;;;;;;1.50;1.20;;;17.50;99.90;;;;;;4998672;28;20421;-43
2022/05/27 01:00:16;;;;;;;1.40;1.30;;;17.30;99.90;;;;;;4998318;28;20440;-43
2022/05/27 01:02:44;;;;;;;1.60;1.40;;;17.50;99.90;;;;;;4998196;28;20458;-44
2022/05/27 01:05:14;;;;;;;2.27;1.70;;;17.50;99.90;;;;;;4998248;28;20416;-50
2022/05/27 01:07:41;;;;;;;2.30;1.77;;;17.70;99.90;;;;;;4998323;28;20455;-44
2022/05/27 01:10:12;;;;;;;2.97;1.77;;;17.60;99.90;;;;;;4998663;28;20437;-49
2022/05/27 01:12:39;;;;;;;10.10;1.80;;;17.70;99.90;;;;;;4998639;28;20484;-47
2022/05/27 01:15:13;;;;;;;2.50;1.73;;;17.50;99.90;;;;;;4997081;28;20505;-49
2022/05/27 01:17:54;;;;;;;1.70;1.60;;;17.40;99.90;;;;;;4997892;28;20851;-47
2022/05/27 01:20:42;;;;;;;1.90;1.00;;;17.40;99.90;;;;;;4981411;28;20695;-42
2022/05/27 01:23:31;;;;;;;2.63;1.43;;;17.50;99.90;;;;;;4998252;28;20415;-42
2022/05/27 01:26:04;;;;;;;1.87;1.70;;;17.50;99.90;;;;;;4997788;28;20827;-46
2022/05/27 01:28:43;;;;;;;2.17;1.50;;;17.50;99.90;;;;;;4999015;28;20758;-40
2022/05/27 01:31:48;;;;;;;1.77;1.67;;;17.50;99.90;;;;;;4999797;28;20479;-46
2022/05/27 01:34:39;;;;;;;2.40;1.40;;;17.50;99.90;;;;;;4998120;28;20443;-42
2022/05/27 01:37:26;;;;;;;2.30;1.60;;;17.60;99.90;;;;;;4998595;28;20815;-41
2022/05/27 01:39:58;;;;;;;1.43;1.33;;;17.40;99.90;;;;;;4998042;28;20513;-43
2022/05/27 01:42:32;;;;;;;1.67;1.40;;;17.40;99.90;;;;;;4997847;28;20437;-45
2022/05/27 01:45:38;;;;;;;2.30;1.60;;;17.40;99.90;;;;;;4997563;28;20705;-43
2022/05/27 01:48:14;;;;;;;2.10;1.60;;;17.30;99.90;;;;;;4993720;28;20500;-43
2022/05/27 01:50:42;;;;;;;1.50;1.40;;;17.30;99.90;;;;;;4998161;28;20412;-45
2022/05/27 01:53:31;;;;;;;2.80;1.57;;;17.30;99.90;;;;;;4997659;28;20568;-44
2022/05/27 01:56:23;;;;;;;3.33;2.10;;;17.40;99.90;;;;;;4997725;28;20434;-42
2022/05/27 01:58:56;;;;;;;1.47;1.40;;;17.40;99.90;;;;;;4997081;28;20423;-44
2022/05/27 02:01:32;;;;;;;1.70;1.60;;;17.40;99.90;;;;;;4997912;28;20457;-43
2022/05/27 02:04:09;;;;;;;3.47;2.23;;;17.40;99.90;;;;;;4997152;28;20656;-45
2022/05/27 02:06:48;;;;;;;2.87;1.47;;;17.30;99.90;;;;;;4997417;28;20532;-45
2022/05/27 02:09:36;;;;;;;1.57;1.40;;;17.30;99.90;;;;;;4997461;28;20715;-43
2022/05/27 02:12:21;;;;;;;2.40;2.20;;;17.20;99.90;;;;;;4997352;28;20548;-43
2022/05/27 02:14:54;;;;;;;1.67;1.57;;;17.40;99.90;;;;;;4997056;28;20412;-48
2022/05/27 02:17:28;;;;;;;1.90;1.70;;;17.50;99.90;;;;;;4980419;28;20414;-42
2022/05/27 02:20:14;;;;;;;2.77;1.87;;;17.40;99.90;;;;;;4996799;28;20673;-43
2022/05/27 02:22:48;;;;;;;4.40;1.60;;;17.30;99.90;;;;;;4997019;28;20466;-46
2022/05/27 02:25:25;;;;;;;2.23;1.43;;;17.30;99.90;;;;;;4997319;28;20416;-42
2022/05/27 02:28:21;;;;;;;1.40;1.30;;;17.40;99.90;;;;;;4997425;28;20467;-46
2022/05/27 02:30:53;;;;;;;1.93;1.33;;;17.50;99.90;;;;;;4999484;28;20562;-40
2022/05/27 02:36:57;;;;;;;2.83;2.17;;;17.40;99.90;;;;;;4998612;28;20469;-43
2022/05/27 02:39:25;;;;;;;2.00;1.90;;;17.30;99.90;;;;;;4998030;28;20430;-40
2022/05/27 02:42:02;;;;;;;5.83;2.73;;;17.40;99.90;;;;;;4996105;28;20534;-43
2022/05/27 02:45:03;;;;;;;1.40;1.30;;;17.40;99.90;;;;;;4996651;28;20437;-44
2022/05/27 02:47:43;;;;;;;2.53;1.40;;;17.50;99.90;;;;;;4998181;28;20450;-45
2022/05/27 02:50:19;;;;;;;5.50;2.40;;;17.40;99.90;;;;;;4998755;28;20404;-43
2022/05/27 02:53:08;;;;;;;2.50;1.20;;;17.40;99.90;;;;;;5009507;28;20481;-43
2022/05/27 02:55:48;;;;;;;1.33;1.20;;;17.50;99.90;;;;;;5013779;28;20778;-43
2022/05/27 02:58:16;;;;;;;1.20;1.10;;;17.50;99.90;;;;;;5011623;28;21017;-42
2022/05/27 03:00:44;;;;;;;3.87;1.73;;;17.50;99.90;;;;;;5012729;28;20449;-44
2022/05/27 03:03:15;;;;;;;2.97;1.40;;;17.50;99.90;;;;;;5010543;28;20475;-44
2022/05/27 03:06:02;;;;;;;9.23;1.70;;;17.60;99.90;;;;;;5019343;28;20418;-43
2022/05/27 03:08:44;;;;;;;1.43;1.33;;;17.60;99.90;;;;;;5018009;28;20706;-46
2022/05/27 03:11:32;;;;;;;1.80;1.60;;;17.60;99.90;;;;;;5017675;28;20448;-47
2022/05/27 03:14:43;;;;;;;1.70;1.60;;;17.50;99.90;;;;;;4977804;28;20411;-39
2022/05/27 03:17:43;;;;;;;1.47;1.40;;;17.60;99.90;;;;;;5009378;28;20491;-43
2022/05/27 03:20:26;;;;;;;1.70;1.30;;;17.50;99.90;;;;;;5007710;28;20424;-41
2022/05/27 03:23:14;;;;;;;2.50;1.60;;;17.40;99.90;;;;;;5015970;28;20442;-44
2022/05/27 03:25:50;;;;;;;1.20;1.10;;;17.50;99.90;;;;;;5015530;28;20459;-42
2022/05/27 03:28:21;;;;;;;1.37;1.27;;;17.60;99.90;;;;;;5016188;28;20475;-42
2022/05/27 03:31:03;;;;;;;1.60;1.50;;;17.60;99.90;;;;;;5016308;28;20434;-41
2022/05/27 03:33:42;;;;;;;1.30;1.20;;;17.60;99.90;;;;;;5016949;28;20438;-44
2022/05/27 03:36:29;;;;;;;2.07;1.60;;;17.70;99.90;;;;;;5017364;28;20405;-47
2022/05/27 03:39:17;;;;;;;1.83;1.73;;;17.80;99.90;;;;;;5010163;28;20440;-42
2022/05/27 03:41:54;;;;;;;1.50;1.20;;;17.80;99.90;;;;;;5003158;28;20842;-42
2022/05/27 03:44:26;;;;;;;2.23;1.53;;;17.80;99.90;;;;;;5015719;28;20416;-42
2022/05/27 03:46:56;;;;;;;1.80;1.70;;;17.80;99.90;;;;;;5015367;28;20654;-41
2022/05/27 03:49:24;;;;;;;1.73;1.50;;;17.80;99.90;;;;;;5015460;28;20411;-42
2022/05/27 03:51:57;;;;;;;1.67;1.57;;;17.70;99.90;;;;;;5015433;28;20439;-44
2022/05/27 03:54:25;;;;;;;2.00;1.57;;;17.70;99.90;;;;;;5016942;28;20440;-43
2022/05/27 03:56:53;;;;;;;1.60;1.50;;;17.70;99.90;;;;;;5016473;28;20454;-44
2022/05/27 03:59:22;;;;;;;2.00;1.30;;;17.80;99.90;;;;;;5015052;28;20438;-41
2022/05/27 04:01:51;;;;;;;1.60;1.50;;;18.00;99.90;;;;;;4998395;28;20451;-46
2022/05/27 04:04:23;;;;;;;3.90;1.90;;;18.00;99.90;;;;;;4994854;28;20489;-46
2022/05/27 04:06:50;;;;;;;1.87;1.53;;;17.90;99.90;;;;;;5006912;28;20648;-44
2022/05/27 04:09:20;;;;;;;3.43;1.50;;;18.00;99.90;;;;;;5007144;28;20839;-45
2022/05/27 04:11:47;;;;;;;1.80;1.20;;;18.00;99.90;;;;;;5009884;28;20901;-44
2022/05/27 04:14:15;;;;;;;1.60;1.50;;;18.00;99.90;;;;;;4999840;28;20450;-44
2022/05/27 04:16:43;;;;;;;1.30;1.20;;;18.10;99.90;;;;;;4998881;28;20444;-41
2022/05/27 04:19:10;;;;;;;1.37;1.00;;;18.20;99.90;;;;;;4999276;28;20436;-43
2022/05/27 04:21:38;;;;;;;3.97;1.73;;;18.20;99.90;;;;;;4998440;28;20466;-46
2022/05/27 04:24:06;;;;;;;3.27;1.63;;;18.30;99.90;;;;;;4998911;28;20450;-44
2022/05/27 04:26:34;;;;;;;4.70;1.30;;;18.30;99.90;;;;;;4998756;28;20424;-40
2022/05/27 04:29:02;;;;;;;5.00;1.47;;;18.20;99.90;;;;;;4999339;28;20770;-41
2022/05/27 04:31:29;;;;;;;2.83;1.20;;;18.20;99.90;;;;;;4998802;28;20442;-41
2022/05/27 04:33:58;;;;;;;2.30;1.33;;;18.20;99.90;;;;;;4999523;28;20779;-45
2022/05/27 04:36:25;;;;;;;1.43;1.33;;;18.20;99.90;;;;;;4999590;28;20447;-45
2022/05/27 04:38:53;;;;;;;1.43;1.33;;;18.20;99.90;;;;;;4979224;28;20422;-42
2022/05/27 04:41:23;;;;;;;3.00;1.60;;;18.30;99.90;;;;;;4986211;28;20441;-42
2022/05/27 04:43:50;;;;;;;1.17;1.03;;;18.40;99.90;;;;;;4995467;28;20768;-48
2022/05/27 04:46:17;;;;;;;1.60;1.50;;;18.40;99.90;;;;;;4997731;28;20453;-42
2022/05/27 04:48:45;;;;;;;2.23;1.80;;;18.30;99.90;;;;;;4983136;28;20529;-45
2022/05/27 04:51:12;;;;;;;3.30;1.40;;;18.40;99.90;;;;;;4982066;28;20605;-42
2022/05/27 04:53:40;;;;;;;1.87;1.30;;;18.50;99.90;;;;;;4979030;28;20515;-43
2022/05/27 04:56:09;;;;;;;2.23;1.60;;;18.50;99.90;;;;;;4987790;28;20424;-46
2022/05/27 04:58:37;;;;;;;1.50;1.40;;;18.40;99.90;;;;;;4994832;28;20476;-43
2022/05/27 05:01:04;;;;;;;1.53;1.40;;;18.50;99.90;;;;;;5017734;28;20501;-42
2022/05/27 05:03:34;;;;;;;1.87;1.67;;;18.60;99.90;;;;;;5017750;28;20479;-41
2022/05/27 05:06:01;;;;;;;3.17;1.67;;;18.60;99.90;;;;;;5017474;28;20803;-43
2022/05/27 05:08:36;;;;;;;2.37;2.20;;;18.80;99.90;;;;;;5018087;28;20466;-44
2022/05/27 05:11:05;;;;;;;2.30;2.10;;;18.80;99.90;;;;;;5017634;28;20446;-44
2022/05/27 05:13:34;;;;;;;2.20;1.30;;;18.90;99.90;;;;;;5017928;28;20421;-49
2022/05/27 05:16:04;;;;;;;2.67;1.70;;;19.00;99.90;;;;;;4997071;28;20442;-42
2022/05/27 05:18:31;;;;;;;2.23;1.50;;;19.00;99.90;;;;;;4998281;28;20688;-45
2022/05/27 05:20:59;;;;;;;2.70;1.83;;;19.00;99.90;;;;;;4996729;28;20819;-43
2022/05/27 05:23:26;;;;;;;2.67;2.47;;;19.00;99.90;;;;;;4998280;28;20425;-42
2022/05/27 05:25:53;;;;;;;9.13;3.30;;;18.90;99.90;;;;;;4997003;28;20429;-45
2022/05/27 05:28:20;;;;;;;2.50;1.53;;;18.90;99.90;;;;;;4990418;28;20482;-45
2022/05/27 05:30:47;;;;;;;1.73;1.50;;;19.00;99.90;;;;;;4982883;28;20443;-42
2022/05/27 05:33:14;;;;;;;3.00;1.60;;;19.00;99.90;;;;;;4990719;28;20692;-49
2022/05/27 05:35:42;;;;;;;1.77;1.47;;;19.00;99.90;;;;;;4983944;28;20431;-43
2022/05/27 05:38:10;;;;;;;3.00;1.93;;;19.10;99.90;;;;;;4976803;28;20450;-42
2022/05/27 05:40:43;;;;;;;1.80;1.40;;;19.10;99.90;;;;;;4977724;28;20836;-45
2022/05/27 05:43:10;;;;;;;11.17;4.07;;;19.30;99.90;;;;;;4977475;28;20510;-42
2022/05/27 05:45:37;;;;;;;2.90;2.27;;;19.20;99.90;;;;;;4996398;28;20674;-43
2022/05/27 05:48:05;;;;;;;2.40;1.53;;;19.10;99.90;;;;;;4982481;28;20687;-46
2022/05/27 05:50:33;;;;;;;1.83;1.73;;;19.00;99.90;;;;;;4978737;28;20436;-43
2022/05/27 05:53:01;;;;;;;2.80;1.20;;;19.00;99.90;;;;;;4978908;28;20497;-42
2022/05/27 05:55:35;;;;;;;2.17;1.37;;;19.00;99.90;;;;;;4979061;28;20462;-44
2022/05/27 05:58:03;;;;;;;1.57;1.30;;;19.10;99.90;;;;;;4978985;28;20438;-42
2022/05/27 06:00:33;;;;;;;2.10;1.90;;;19.10;99.90;;;;;;4978710;28;20832;-41
2022/05/27 06:03:01;;;;;;;3.13;1.40;;;19.30;99.90;;;;;;4978799;28;20526;-44
2022/05/27 06:05:28;;;;;;;2.40;1.50;;;19.50;99.90;;;;;;4978381;28;20418;-44
2022/05/27 06:07:56;;;;;;;3.53;2.10;;;19.60;99.90;;;;;;4978858;28;20528;-44
2022/05/27 06:10:24;;;;;;;2.10;1.90;;;19.80;99.90;;;;;;4977884;28;20403;-41
2022/05/27 06:12:54;;;;;;;3.33;1.73;;;19.80;99.90;;;;;;4977339;28;20476;-47
2022/05/27 06:15:21;;;;;;;3.30;1.53;;;19.80;99.90;;;;;;4978742;28;20440;-44
2022/05/27 06:17:49;;;;;;;2.53;1.57;;;19.60;99.90;;;;;;4978741;28;21166;-42
2022/05/27 06:20:16;;;;;;;3.67;2.00;;;19.40;99.90;;;;;;4978786;28;20419;-40
2022/05/27 06:22:43;;;;;;;1.53;1.43;;;19.40;99.90;;;;;;4977770;28;20552;-47
2022/05/27 06:25:11;;;;;;;2.20;1.77;;;19.50;99.90;;;;;;4978404;28;20464;-43
2022/05/27 06:27:39;;;;;;;2.77;2.10;;;19.50;99.90;;;;;;4976621;28;20573;-48
2022/05/27 06:35:40;;;;;;;4.07;2.20;;;19.00;99.90;;;;;;4976793;28;20478;-44
2022/05/27 06:38:08;;;;;;;4.10;1.70;;;19.00;99.90;;;;;;4977060;28;20417;-41
2022/05/27 06:40:36;;;;;;;3.40;1.40;;;18.90;99.90;;;;;;4977100;28;20753;-45
2022/05/27 06:43:03;;;;;;;2.40;1.30;;;18.70;99.90;;;;;;4976961;28;20464;-47
2022/05/27 06:45:30;;;;;;;3.83;2.13;;;18.70;99.90;;;;;;4977085;28;20487;-47
2022/05/27 06:47:57;;;;;;;7.03;1.50;;;18.80;99.90;;;;;;4977077;28;20459;-47
2022/05/27 06:50:24;;;;;;;2.10;1.50;;;18.70;99.90;;;;;;4976443;28;20426;-42
2022/05/27 06:52:55;;;;;;;2.83;1.90;;;18.50;99.90;;;;;;4976588;28;20780;-43
2022/05/27 06:55:22;;;;;;;5.13;1.73;;;18.30;99.90;;;;;;4975943;28;20439;-41
2022/05/27 06:57:50;;;;;;;2.60;1.57;;;18.30;99.90;;;;;;4991314;28;20435;-49
2022/05/27 07:00:17;;;;;;;12.10;2.13;;;18.20;99.90;;;;;;4977618;28;20445;-41
2022/05/27 07:02:45;;;;;;;8.20;2.70;;;18.10;99.90;;;;;;4976810;28;20658;-43
2022/05/27 07:05:12;;;;;;;1.67;1.50;;;18.00;99.90;;;;;;4976290;28;20722;-42
2022/05/27 07:07:39;;;;;;;1.70;1.60;;;17.90;99.90;;;;;;4959546;28;20668;-46
2022/05/27 07:10:11;;;;;;;2.33;2.10;;;17.90;99.90;;;;;;4976346;28;20429;-45
2022/05/27 07:12:39;;;;;;;8.93;3.37;;;17.80;99.90;;;;;;4976334;28;20470;-42
2022/05/27 07:15:07;;;;;;;2.17;2.07;;;17.80;99.90;;;;;;4976781;28;20461;-45
2022/05/27 07:17:35;;;;;;;2.60;1.80;;;17.70;99.90;;;;;;4976463;28;20475;-46
2022/05/27 07:20:03;;;;;;;1.73;1.63;;;17.70;99.90;;;;;;4977082;28;20815;-46
2022/05/27 07:22:30;;;;;;;2.53;2.33;;;17.80;99.90;;;;;;4977055;28;20465;-43
2022/05/27 07:24:58;;;;;;;3.60;2.23;;;17.70;99.90;;;;;;4976987;28;20413;-48
2022/05/27 07:27:26;;;;;;;3.47;1.97;;;17.50;99.90;;;;;;4976109;28;20760;-48
2022/05/27 07:29:53;;;;;;;3.87;2.10;;;17.40;99.90;;;;;;4976376;28;20445;-45
2022/05/27 07:32:21;;;;;;;3.10;2.80;;;17.20;99.90;;;;;;4975871;28;20456;-43
2022/05/27 07:34:48;;;;;;;2.87;2.50;;;17.00;99.90;;;;;;4975667;28;20462;-44
2022/05/27 07:37:15;;;;;;;4.20;2.60;;;16.90;99.90;;;;;;4976107;28;20416;-48
2022/05/27 07:39:42;;;;;;;2.37;2.27;;;16.70;99.90;;;;;;4976039;28;20511;-43
2022/05/27 07:42:10;;;;;;;5.10;2.30;;;16.60;99.90;;;;;;4976166;28;20921;-43
2022/05/27 07:44:37;;;;;;;2.23;2.13;;;16.50;99.90;;;;;;4972938;28;20419;-44
2022/05/27 07:47:07;;;;;;;2.50;2.30;;;16.40;99.90;;;;;;4975967;28;20423;-46
2022/05/27 07:49:35;;;;;;;2.63;2.43;;;16.30;99.90;;;;;;4976357;28;20453;-45
2022/05/27 07:52:03;;;;;;;2.97;2.63;;;16.20;99.90;;;;;;4977120;28;20438;-48
2022/05/27 07:54:31;;;;;;;3.10;2.80;;;16.20;99.90;;;;;;4976015;28;20208;-45
2022/05/27 07:56:59;;;;;;;4.23;1.90;;;16.20;99.90;;;;;;4975720;28;20649;-43
2022/05/27 07:59:27;;;;;;;2.80;2.60;;;16.30;99.90;;;;;;4976192;28;20425;-46
2022/05/27 08:01:54;;;;;;;3.13;2.90;;;16.00;99.90;;;;;;4975903;28;20223;-42
2022/05/27 08:04:21;;;;;;;2.85;2.65;;;15.80;99.90;;;;;;4976392;28;20419;-45
2022/05/27 08:06:49;;;;;;;2.78;2.58;;;15.60;99.90;;;;;;4977293;28;20214;-43
2022/05/27 08:09:16;;;;;;;3.33;3.03;;;15.30;99.90;;;;;;4976350;28;20262;-45
2022/05/27 08:11:44;;;;;;;5.88;3.78;;;15.20;99.90;;;;;;4975506;28;20497;-45
2022/05/27 08:14:11;;;;;;;3.70;3.10;;;15.20;99.90;;;;;;4976249;28;20448;-43
2022/05/27 08:16:39;;;;;;;3.20;3.00;;;15.20;99.90;;;;;;4975879;28;20276;-44
2022/05/27 08:19:06;;;;;;;3.78;3.50;;;15.20;99.90;;;;;;4976470;28;20248;-45
2022/05/27 08:21:36;;;;;;;4.20;3.90;;;15.30;99.90;;;;;;4975533;28;20494;-48
2022/05/27 08:24:05;;;;;;;7.55;4.90;;;15.30;99.90;;;;;;4976979;28;20210;-43
2022/05/27 08:26:40;;;;;;;4.53;4.13;;;15.30;99.90;;;;;;4976867;28;20215;-47
2022/05/27 08:29:08;;;;;;;4.68;4.15;;;15.30;99.90;;;;;;4977287;28;20241;-45
2022/05/27 08:31:37;;;;;;;4.55;3.95;;;15.10;99.90;;;;;;4975413;28;20782;-43
2022/05/27 08:39:46;;;;;;;4.40;4.00;;;15.00;99.90;;;;;;4977978;28;20443;-45
2022/05/27 08:42:28;;;;;;;3.65;2.72;;;15.00;99.90;;;;;;4977979;28;20454;-43
2022/05/27 08:45:02;;;;;;;3.05;1.85;;;14.70;99.90;;;;;;4975661;28;20241;-44
2022/05/27 08:47:35;;;;;;;2.00;1.73;;;14.00;99.90;;;;;;4975816;28;20202;-43
2022/05/27 08:50:17;;;;;;;1.90;1.80;;;13.70;99.90;;;;;;4976757;28;20281;-39
2022/05/27 08:52:48;;;;;;;2.47;1.70;;;13.40;99.90;;;;;;4976912;28;20226;-40
2022/05/27 09:01:36;;;;;;;1.30;1.20;;;13.30;99.90;;;;;;4978729;28;20551;-43
2022/05/27 09:04:16;;;;;;;1.90;1.80;;;13.30;99.90;;;;;;4978731;28;20556;-46
2022/05/27 09:06:51;;;;;;;3.28;3.08;;;13.30;99.90;;;;;;4978695;28;20245;-42
2022/05/27 09:09:28;;;;;;;2.05;1.90;;;13.30;99.90;;;;;;4978674;28;20700;-43
2022/05/27 09:12:14;;;;;;;3.42;1.38;;;13.20;99.90;;;;;;4978589;28;20234;-43
2022/05/27 09:14:52;;;;;;;5.88;2.05;;;13.20;99.90;;;;;;4978473;28;20403;-42
2022/05/27 09:17:32;;;;;;;2.22;2.13;;;13.40;99.90;;;;;;4978999;28;20201;-48
2022/05/27 09:20:08;;;;;;;2.75;2.30;;;13.50;99.90;;;;;;4978917;28;20221;-41
2022/05/27 09:22:59;;;;;;;2.60;2.40;;;13.60;99.90;;;;;;4978998;28;20230;-48
2022/05/27 09:25:42;;;;;;;3.97;2.42;;;13.70;99.90;;;;;;4984023;28;20428;-48
2022/05/27 09:28:31;;;;;;;3.25;3.05;;;13.60;99.90;;;;;;4984146;28;20293;-49
2022/05/27 09:31:00;;;;;;;3.25;2.95;;;13.50;99.90;;;;;;4981483;28;20291;-44
2022/05/27 09:33:30;;;;;;;4.10;3.10;;;13.40;99.90;;;;;;4979707;28;20207;-41
2022/05/27 09:36:09;;;;;;;1.92;1.60;;;13.50;99.90;;;;;;4979093;28;20260;-44
2022/05/27 09:38:45;;;;;;;3.45;2.40;;;13.40;99.90;;;;;;4978707;28;20209;-43
2022/05/27 09:41:29;;;;;;;2.20;2.10;;;13.30;99.90;;;;;;4978699;28;20213;-41
2022/05/27 09:44:04;;;;;;;3.38;2.03;;;13.10;99.90;;;;;;4978202;28;20198;-39
2022/05/27 09:46:32;;;;;;;3.83;2.90;;;13.10;99.90;;;;;;4977466;28;20216;-44
2022/05/27 09:49:00;;;;;;;3.38;2.33;;;13.10;99.90;;;;;;4977993;28;20641;-40
2022/05/27 09:51:31;;;;;;;2.70;2.50;;;13.00;99.90;;;;;;4978240;28;20564;-42
2022/05/27 09:54:15;;;;;;;3.13;2.80;;;13.20;99.90;;;;;;4980758;28;20210;-46
2022/05/27 09:56:55;;;;;;;3.42;3.13;;;13.30;99.90;;;;;;4979592;28;20206;-45
2022/05/27 09:59:25;;;;;;;2.95;2.63;;;13.50;99.90;;;;;;4978477;28;20375;-44
2022/05/27 10:02:17;;;;;;;2.65;2.45;;;13.60;99.90;;;;;;4978148;28;20242;-42
2022/05/27 10:05:03;;;;;;;4.00;3.40;;;13.70;99.90;;;;;;4980676;28;20210;-43
2022/05/27 10:07:37;;;;;;;6.25;5.45;;;13.70;99.90;;;;;;4979250;28;20312;-44
2022/05/27 10:10:28;;;;;;;3.78;3.38;;;13.90;99.90;;;;;;4977685;28;20230;-42
2022/05/27 10:13:15;;;;;;;4.20;3.80;;;14.00;99.90;;;;;;4977532;28;20226;-41
2022/05/27 10:15:43;;;;;;;3.78;3.22;;;14.10;99.90;;;;;;4977281;28;20417;-44
2022/05/27 10:18:25;;;;;;;3.53;3.25;;;14.20;99.90;;;;;;4979094;28;20269;-45
2022/05/27 10:21:09;;;;;;;4.28;2.47;;;14.00;99.90;;;;;;4991775;28;20552;-43
2022/05/27 10:23:40;;;;;;;4.35;3.88;;;14.10;99.90;;;;;;4978174;28;20286;-41
2022/05/27 10:26:25;;;;;;;4.00;3.00;;;14.20;99.90;;;;;;4977655;28;20221;-39
2022/05/27 10:29:10;;;;;;;3.80;2.85;;;14.30;99.90;;;;;;4977032;28;20556;-39
2022/05/27 10:31:48;;;;;;;2.60;2.35;;;14.30;99.90;;;;;;4977010;28;20226;-45
2022/05/27 10:34:40;;;;;;;3.67;2.35;;;14.20;99.90;;;;;;4978845;28;20334;-42
2022/05/27 10:37:46;;;;;;;2.80;2.60;;;14.20;99.90;;;;;;4980067;28;20587;-44
2022/05/27 10:40:26;;;;;;;2.88;2.67;;;14.30;99.90;;;;;;4979186;28;20423;-41
2022/05/27 10:43:21;;;;;;;6.50;3.63;;;14.40;99.90;;;;;;4979509;28;20527;-47
2022/05/27 10:45:52;;;;;;;3.28;3.03;;;14.50;99.90;;;;;;4978946;28;20210;-43
2022/05/27 10:48:26;;;;;;;4.75;3.70;;;14.80;99.90;;;;;;4980434;28;20257;-44
2022/05/27 10:51:27;;;;;;;3.10;2.90;;;14.70;99.90;;;;;;4978924;28;20237;-41
2022/05/27 10:54:16;;;;;;;3.15;2.95;;;14.70;99.90;;;;;;4978685;28;20203;-40
2022/05/27 11:03:11;;;;;;;3.17;2.88;;;15.10;99.90;;;;;;4992600;28;20535;-39
2022/05/27 11:05:58;;;;;;;3.15;2.90;;;15.50;99.90;;;;;;4976976;28;20213;-43
2022/05/27 11:08:43;;;;;;;3.38;3.08;;;15.80;99.90;;;;;;4976285;28;20278;-41
2022/05/27 11:11:27;;;;;;;5.68;3.28;;;15.70;99.90;;;;;;4979620;28;20282;-45
2022/05/27 11:16:58;;;;;;;2.40;2.25;;;15.60;99.90;;;;;;4979377;28;20281;-45
2022/05/27 11:19:46;;;;;;;3.45;2.70;;;15.60;99.90;;;;;;4978046;28;20276;-44
2022/05/27 11:22:26;;;;;;;2.63;2.42;;;15.70;99.90;;;;;;4976343;28;20230;-43
2022/05/27 11:25:31;;;;;;;5.53;2.20;;;15.70;99.90;;;;;;4975998;28;20202;-40
2022/05/27 11:28:04;;;;;;;3.03;2.83;;;15.70;99.90;;;;;;4976526;28;20202;-44
2022/05/27 11:30:50;;;;;;;2.00;1.90;;;15.70;99.90;;;;;;4976100;28;20231;-43
2022/05/27 11:33:43;;;;;;;3.10;2.80;;;15.60;99.90;;;;;;4976609;28;20230;-45
2022/05/27 11:36:36;;;;;;;2.30;2.08;;;15.20;99.90;;;;;;4976551;28;20210;-40
2022/05/27 11:39:47;;;;;;;3.15;1.55;;;14.70;99.90;;;;;;4956260;28;20218;-40
2022/05/27 11:42:32;;;;;;;2.38;1.90;;;14.60;99.90;;;;;;4976139;28;20283;-41
2022/05/27 11:45:08;;;;;;;2.47;2.10;;;15.00;99.90;;;;;;4975414;28;20224;-40
2022/05/27 11:47:58;;;;;;;4.75;1.75;;;15.00;99.90;;;;;;4959348;28;20426;-44
2022/05/27 11:51:13;;;;;;;2.30;2.13;;;15.20;99.90;;;;;;4976628;28;20233;-48
2022/05/27 11:54:08;;;;;;;11.32;1.90;;;15.40;99.90;;;;;;4958446;28;20206;-44
2022/05/27 11:56:54;;;;;;;1.80;1.70;;;15.50;99.90;;;;;;4976362;28;20303;-43
2022/05/27 11:59:25;;;;;;;3.60;1.40;;;15.40;99.90;;;;;;4977020;28;20257;-43
2022/05/27 12:02:19;;;;;;;3.83;1.98;;;15.60;99.90;;;;;;4975900;28;20301;-44
2022/05/27 12:04:58;;;;;;;1.65;1.52;;;15.50;99.90;;;;;;4976217;28;20214;-40
2022/05/27 12:07:31;;;;;;;2.70;2.03;;;15.30;99.90;;;;;;4975671;28;20215;-45
2022/05/27 12:10:23;;;;;;;1.92;1.83;;;15.30;99.90;;;;;;4976132;28;20548;-46
2022/05/27 12:13:09;;;;;;;2.47;1.90;;;15.40;99.90;;;;;;4975647;28;20236;-41
2022/05/27 12:15:46;;;;;;;2.20;2.00;;;15.30;99.90;;;;;;4985631;28;20320;-42
2022/05/27 12:18:39;;;;;;;3.10;2.80;;;15.30;99.90;;;;;;4984647;28;20207;-42
2022/05/27 12:21:11;;;;;;;2.22;2.08;;;15.20;99.90;;;;;;4986114;28;20278;-44
2022/05/27 12:23:44;;;;;;;2.67;2.40;;;15.10;99.90;;;;;;4975364;28;20215;-43
2022/05/27 12:26:12;;;;;;;3.58;2.20;;;15.20;99.90;;;;;;4978331;28;20309;-40
2022/05/27 12:28:44;;;;;;;1.73;1.63;;;15.20;99.90;;;;;;4976669;28;20246;-41
2022/05/27 12:31:13;;;;;;;1.88;1.77;;;15.20;99.90;;;;;;4980165;28;20210;-41
2022/05/27 12:33:41;;;;;;;2.42;1.98;;;15.20;99.90;;;;;;4982418;28;20229;-44
2022/05/27 12:36:28;;;;;;;1.70;1.60;;;15.30;99.90;;;;;;4982289;28;20279;-41
2022/05/27 12:38:57;;;;;;;2.90;2.00;;;15.50;99.90;;;;;;4979453;28;20274;-42
2022/05/27 12:41:37;;;;;;;1.98;1.70;;;15.60;99.90;;;;;;4980605;28;20264;-45
2022/05/27 12:44:26;;;;;;;4.75;2.47;;;15.50;99.90;;;;;;4980897;28;20508;-41
2022/05/27 12:47:00;;;;;;;2.63;2.42;;;16.20;99.90;;;;;;4980291;28;20211;-45
2022/05/27 12:49:44;;;;;;;2.35;2.15;;;16.50;99.90;;;;;;4985488;28;20334;-44
2022/05/27 12:52:30;;;;;;;4.70;4.10;;;16.80;99.90;;;;;;4984325;28;20303;-43
2022/05/27 12:54:57;;;;;;;2.10;1.93;;;16.90;99.90;;;;;;4997011;28;20419;-43
2022/05/27 13:03:35;;;;;;;2.93;2.53;;;18.10;99.90;;;;;;4982358;28;20488;-41
2022/05/27 13:06:32;;;;;;;2.37;2.17;;;18.50;99.90;;;;;;4984606;28;20426;-44
2022/05/27 13:09:07;;;;;;;2.53;2.33;;;18.20;99.90;;;;;;4981680;28;20826;-46
2022/05/27 13:11:34;;;;;;;3.80;3.30;;;18.30;99.90;;;;;;4980616;28;20451;-45
2022/05/27 13:14:04;;;;;;;1.80;1.70;;;18.20;99.90;;;;;;4980571;28;20444;-44
2022/05/27 13:17:20;;;;;;;2.73;1.80;;;18.00;99.90;;;;;;4982002;28;20451;-46
2022/05/27 13:19:58;;;;;;;3.53;1.90;;;17.90;99.90;;;;;;4984148;28;20425;-45
2022/05/27 13:23:01;;;;;;;2.97;2.70;;;18.10;99.90;;;;;;4980492;28;20491;-42
2022/05/27 13:25:39;;;;;;;1.87;1.77;;;17.80;99.90;;;;;;4969070;28;20481;-41
2022/05/27 13:28:32;;;;;;;3.17;1.70;;;17.20;99.90;;;;;;4980067;28;20461;-46
2022/05/27 13:31:12;;;;;;;1.70;1.60;;;17.20;99.90;;;;;;4979405;28;20482;-42
2022/05/27 13:34:13;;;;;;;2.20;2.10;;;16.90;99.90;;;;;;4980786;28;20433;-42
2022/05/27 13:37:33;;;;;;;3.00;1.70;;;16.80;99.90;;;;;;4979424;28;20756;-43
2022/05/27 13:40:07;;;;;;;2.20;2.00;;;17.10;99.90;;;;;;4973415;28;20631;-47
2022/05/27 13:42:46;;;;;;;2.73;2.53;;;17.60;99.90;;;;;;4979181;28;20474;-48
2022/05/27 13:45:23;;;;;;;2.47;2.13;;;18.00;99.90;;;;;;4981010;28;20448;-45
2022/05/27 13:48:11;;;;;;;2.60;2.00;;;18.30;99.90;;;;;;4980584;28;20756;-45
2022/05/27 13:50:41;;;;;;;2.93;1.73;;;18.10;99.90;;;;;;4981731;28;20494;-48
2022/05/27 13:53:22;;;;;;;1.90;1.80;;;17.90;99.90;;;;;;4984936;28;20464;-42
2022/05/27 13:56:17;;;;;;;2.40;2.03;;;17.50;99.90;;;;;;4989690;28;20446;-45
2022/05/27 13:59:17;;;;;;;2.43;1.53;;;17.00;99.90;;;;;;5001582;28;20443;-49
2022/05/27 14:01:50;;;;;;;2.17;2.03;;;16.80;99.90;;;;;;5003540;28;20436;-42
2022/05/27 14:04:32;;;;;;;2.17;1.80;;;16.70;99.90;;;;;;4997729;28;20418;-42